sensor_id;sensor_type;location;lat;lon;timestamp;temperature;humidity
76099;DHT22;64828;49.956;8.636;2023-05-07T00:00:04;14.80;77.20
76099;DHT22;64828;49.956;8.636;2023-05-07T00:00:23;14.80;77.20
76099;DHT22;64828;49.956;8.636;2023-05-07T00:00:39;14.90;77.30
76099;DHT22;64828;49.956;8.636;2023-05-07T00:00:59;14.90;77.30
76099;DHT22;64828;49.956;8.636;2023-05-07T00:01:16;14.90;77.30
76099;DHT22;64828;49.956;8.636;2023-05-07T00:01:33;14.90;77.30
76099;DHT22;64828;49.956;8.636;2023-05-07T00:01:55;14.90;77.40
76099;DHT22;64828;49.956;8.636;2023-05-07T00:02:15;14.90;77.30
76099;DHT22;64828;49.956;8.636;2023-05-07T00:02:31;14.90;77.30
76099;DHT22;64828;49.956;8.636;2023-05-07T00:02:48;14.90;77.40
76099;DHT22;64828;49.956;8.636;2023-05-07T00:03:06;14.90;77.40
76099;DHT22;64828;49.956;8.636;2023-05-07T00:03:22;14.90;77.40
76099;DHT22;64828;49.956;8.636;2023-05-07T00:03:37;14.90;77.60
76099;DHT22;64828;49.956;8.636;2023-05-07T00:03:55;14.90;77.30
76099;DHT22;64828;49.956;8.636;2023-05-07T00:04:14;14.90;77.20
76099;DHT22;64828;49.956;8.636;2023-05-07T00:04:35;14.90;77.20
76099;DHT22;64828;49.956;8.636;2023-05-07T00:04:54;14.90;77.20
76099;DHT22;64828;49.956;8.636;2023-05-07T00:05:11;14.90;77.20
76099;DHT22;64828;49.956;8.636;2023-05-07T00:05:29;14.90;77.20
76099;DHT22;64828;49.956;8.636;2023-05-07T00:05:47;14.90;77.20
76099;DHT22;64828;49.956;8.636;2023-05-07T00:06:06;14.90;77.10
76099;DHT22;64828;49.956;8.636;2023-05-07T00:06:21;14.90;77.10
76099;DHT22;64828;49.956;8.636;2023-05-07T00:06:38;14.90;77.20
76099;DHT22;64828;49.956;8.636;2023-05-07T00:07:00;14.90;77.30
76099;DHT22;64828;49.956;8.636;2023-05-07T00:07:16;14.90;77.30
76099;DHT22;64828;49.956;8.636;2023-05-07T00:07:33;14.90;77.30
76099;DHT22;64828;49.956;8.636;2023-05-07T00:07:50;14.90;77.60
76099;DHT22;64828;49.956;8.636;2023-05-07T00:08:08;14.90;77.70
76099;DHT22;64828;49.956;8.636;2023-05-07T00:08:24;14.90;77.80
76099;DHT22;64828;49.956;8.636;2023-05-07T00:08:40;14.90;77.70
76099;DHT22;64828;49.956;8.636;2023-05-07T00:08:59;14.90;77.90
76099;DHT22;64828;49.956;8.636;2023-05-07T00:09:16;14.90;77.90
76099;DHT22;64828;49.956;8.636;2023-05-07T00:09:32;14.90;77.70
76099;DHT22;64828;49.956;8.636;2023-05-07T00:09:48;14.90;77.60
76099;DHT22;64828;49.956;8.636;2023-05-07T00:10:07;14.90;77.50
76099;DHT22;64828;49.956;8.636;2023-05-07T00:10:23;14.90;77.60
76099;DHT22;64828;49.956;8.636;2023-05-07T00:10:44;14.90;77.50
76099;DHT22;64828;49.956;8.636;2023-05-07T00:11:02;14.90;77.50
76099;DHT22;64828;49.956;8.636;2023-05-07T00:11:20;14.90;77.40
76099;DHT22;64828;49.956;8.636;2023-05-07T00:11:38;14.90;77.40
76099;DHT22;64828;49.956;8.636;2023-05-07T00:11:54;14.90;77.30
76099;DHT22;64828;49.956;8.636;2023-05-07T00:12:11;14.90;77.30
76099;DHT22;64828;49.956;8.636;2023-05-07T00:12:42;15.00;77.30
76099;DHT22;64828;49.956;8.636;2023-05-07T00:12:59;15.00;77.40
76099;DHT22;64828;49.956;8.636;2023-05-07T00:13:15;14.90;77.60
76099;DHT22;64828;49.956;8.636;2023-05-07T00:13:31;14.90;77.80
76099;DHT22;64828;49.956;8.636;2023-05-07T00:13:50;15.00;77.50
76099;DHT22;64828;49.956;8.636;2023-05-07T00:14:06;15.00;77.60
76099;DHT22;64828;49.956;8.636;2023-05-07T00:14:21;15.00;77.70
76099;DHT22;64828;49.956;8.636;2023-05-07T00:14:37;15.00;77.60
76099;DHT22;64828;49.956;8.636;2023-05-07T00:14:53;15.00;77.90
76099;DHT22;64828;49.956;8.636;2023-05-07T00:15:09;15.00;77.70
76099;DHT22;64828;49.956;8.636;2023-05-07T00:15:25;14.90;77.80
76099;DHT22;64828;49.956;8.636;2023-05-07T00:15:40;14.90;77.90
76099;DHT22;64828;49.956;8.636;2023-05-07T00:15:56;14.90;77.80
76099;DHT22;64828;49.956;8.636;2023-05-07T00:16:11;14.90;77.80
76099;DHT22;64828;49.956;8.636;2023-05-07T00:16:27;15.00;78.00
76099;DHT22;64828;49.956;8.636;2023-05-07T00:16:43;15.00;78.10
76099;DHT22;64828;49.956;8.636;2023-05-07T00:16:58;14.90;77.90
76099;DHT22;64828;49.956;8.636;2023-05-07T00:17:14;15.00;77.90
76099;DHT22;64828;49.956;8.636;2023-05-07T00:17:30;14.90;77.90
76099;DHT22;64828;49.956;8.636;2023-05-07T00:17:45;15.00;78.00
76099;DHT22;64828;49.956;8.636;2023-05-07T00:18:01;14.90;78.10
76099;DHT22;64828;49.956;8.636;2023-05-07T00:18:17;15.00;78.30
76099;DHT22;64828;49.956;8.636;2023-05-07T00:18:36;15.00;78.10
76099;DHT22;64828;49.956;8.636;2023-05-07T00:18:52;15.00;78.00
76099;DHT22;64828;49.956;8.636;2023-05-07T00:19:08;14.90;78.30
76099;DHT22;64828;49.956;8.636;2023-05-07T00:19:23;15.00;78.50
76099;DHT22;64828;49.956;8.636;2023-05-07T00:19:39;15.00;78.50
76099;DHT22;64828;49.956;8.636;2023-05-07T00:19:54;14.90;78.20
76099;DHT22;64828;49.956;8.636;2023-05-07T00:20:10;14.90;78.10
76099;DHT22;64828;49.956;8.636;2023-05-07T00:20:26;15.00;78.30
76099;DHT22;64828;49.956;8.636;2023-05-07T00:20:42;15.00;78.40
76099;DHT22;64828;49.956;8.636;2023-05-07T00:20:58;14.90;78.70
76099;DHT22;64828;49.956;8.636;2023-05-07T00:21:13;14.90;78.60
76099;DHT22;64828;49.956;8.636;2023-05-07T00:21:29;14.90;78.50
76099;DHT22;64828;49.956;8.636;2023-05-07T00:21:45;14.90;78.90
76099;DHT22;64828;49.956;8.636;2023-05-07T00:22:01;14.90;78.20
76099;DHT22;64828;49.956;8.636;2023-05-07T00:22:17;14.90;78.30
76099;DHT22;64828;49.956;8.636;2023-05-07T00:22:33;14.90;78.50
76099;DHT22;64828;49.956;8.636;2023-05-07T00:22:48;14.90;78.70
76099;DHT22;64828;49.956;8.636;2023-05-07T00:23:04;14.90;78.70
76099;DHT22;64828;49.956;8.636;2023-05-07T00:23:19;14.90;78.70
76099;DHT22;64828;49.956;8.636;2023-05-07T00:23:35;14.90;78.90
76099;DHT22;64828;49.956;8.636;2023-05-07T00:23:50;14.90;79.00
76099;DHT22;64828;49.956;8.636;2023-05-07T00:24:06;15.00;79.00
76099;DHT22;64828;49.956;8.636;2023-05-07T00:24:22;14.90;78.80
76099;DHT22;64828;49.956;8.636;2023-05-07T00:24:38;14.90;78.80
76099;DHT22;64828;49.956;8.636;2023-05-07T00:24:54;14.90;78.70
76099;DHT22;64828;49.956;8.636;2023-05-07T00:25:09;14.90;78.80
76099;DHT22;64828;49.956;8.636;2023-05-07T00:25:25;14.90;79.10
76099;DHT22;64828;49.956;8.636;2023-05-07T00:25:41;15.00;78.90
76099;DHT22;64828;49.956;8.636;2023-05-07T00:25:56;15.00;79.00
76099;DHT22;64828;49.956;8.636;2023-05-07T00:26:12;15.00;79.10
76099;DHT22;64828;49.956;8.636;2023-05-07T00:26:27;15.00;79.00
76099;DHT22;64828;49.956;8.636;2023-05-07T00:26:43;15.00;78.70
76099;DHT22;64828;49.956;8.636;2023-05-07T00:26:59;15.00;78.60
76099;DHT22;64828;49.956;8.636;2023-05-07T00:27:14;15.00;78.60
76099;DHT22;64828;49.956;8.636;2023-05-07T00:27:30;15.00;78.50
76099;DHT22;64828;49.956;8.636;2023-05-07T00:27:46;15.00;78.50
76099;DHT22;64828;49.956;8.636;2023-05-07T00:28:01;15.00;78.60
76099;DHT22;64828;49.956;8.636;2023-05-07T00:28:18;15.00;78.60
76099;DHT22;64828;49.956;8.636;2023-05-07T00:28:34;15.00;78.70
76099;DHT22;64828;49.956;8.636;2023-05-07T00:28:50;15.00;78.70
76099;DHT22;64828;49.956;8.636;2023-05-07T00:29:05;15.00;78.90
76099;DHT22;64828;49.956;8.636;2023-05-07T00:29:21;15.00;79.20
76099;DHT22;64828;49.956;8.636;2023-05-07T00:29:36;15.00;79.00
76099;DHT22;64828;49.956;8.636;2023-05-07T00:29:52;15.00;79.10
76099;DHT22;64828;49.956;8.636;2023-05-07T00:30:08;15.00;78.70
76099;DHT22;64828;49.956;8.636;2023-05-07T00:30:24;15.00;78.80
76099;DHT22;64828;49.956;8.636;2023-05-07T00:30:39;15.00;78.80
76099;DHT22;64828;49.956;8.636;2023-05-07T00:30:55;14.90;78.80
76099;DHT22;64828;49.956;8.636;2023-05-07T00:31:11;15.00;78.80
76099;DHT22;64828;49.956;8.636;2023-05-07T00:31:26;14.90;78.80
76099;DHT22;64828;49.956;8.636;2023-05-07T00:31:42;15.00;78.90
76099;DHT22;64828;49.956;8.636;2023-05-07T00:31:58;15.00;78.80
76099;DHT22;64828;49.956;8.636;2023-05-07T00:32:13;14.90;78.80
76099;DHT22;64828;49.956;8.636;2023-05-07T00:32:29;15.00;78.70
76099;DHT22;64828;49.956;8.636;2023-05-07T00:32:45;14.90;78.70
76099;DHT22;64828;49.956;8.636;2023-05-07T00:33:01;15.00;78.70
76099;DHT22;64828;49.956;8.636;2023-05-07T00:33:16;14.90;79.00
76099;DHT22;64828;49.956;8.636;2023-05-07T00:33:32;14.90;78.90
76099;DHT22;64828;49.956;8.636;2023-05-07T00:33:47;14.90;78.80
76099;DHT22;64828;49.956;8.636;2023-05-07T00:34:03;14.90;78.60
76099;DHT22;64828;49.956;8.636;2023-05-07T00:34:19;15.00;78.70
76099;DHT22;64828;49.956;8.636;2023-05-07T00:34:34;15.00;79.30
76099;DHT22;64828;49.956;8.636;2023-05-07T00:34:50;15.00;79.30
76099;DHT22;64828;49.956;8.636;2023-05-07T00:35:06;15.00;79.10
76099;DHT22;64828;49.956;8.636;2023-05-07T00:35:22;15.00;79.00
76099;DHT22;64828;49.956;8.636;2023-05-07T00:35:38;15.00;78.70
76099;DHT22;64828;49.956;8.636;2023-05-07T00:35:54;15.00;78.80
76099;DHT22;64828;49.956;8.636;2023-05-07T00:36:09;14.90;78.80
76099;DHT22;64828;49.956;8.636;2023-05-07T00:36:25;15.00;79.00
76099;DHT22;64828;49.956;8.636;2023-05-07T00:36:41;15.00;78.90
76099;DHT22;64828;49.956;8.636;2023-05-07T00:36:57;14.90;79.10
76099;DHT22;64828;49.956;8.636;2023-05-07T00:37:12;15.00;79.20
76099;DHT22;64828;49.956;8.636;2023-05-07T00:37:31;15.00;79.60
76099;DHT22;64828;49.956;8.636;2023-05-07T00:37:46;14.90;78.80
76099;DHT22;64828;49.956;8.636;2023-05-07T00:38:03;15.00;79.20
76099;DHT22;64828;49.956;8.636;2023-05-07T00:38:19;14.90;78.80
76099;DHT22;64828;49.956;8.636;2023-05-07T00:38:34;14.90;78.80
76099;DHT22;64828;49.956;8.636;2023-05-07T00:38:50;14.90;79.10
76099;DHT22;64828;49.956;8.636;2023-05-07T00:39:05;14.90;79.10
76099;DHT22;64828;49.956;8.636;2023-05-07T00:39:22;14.90;79.30
76099;DHT22;64828;49.956;8.636;2023-05-07T00:39:37;15.00;79.50
76099;DHT22;64828;49.956;8.636;2023-05-07T00:39:53;14.90;79.50
76099;DHT22;64828;49.956;8.636;2023-05-07T00:40:09;15.00;79.80
76099;DHT22;64828;49.956;8.636;2023-05-07T00:40:24;14.90;79.30
76099;DHT22;64828;49.956;8.636;2023-05-07T00:40:40;14.90;79.30
76099;DHT22;64828;49.956;8.636;2023-05-07T00:40:56;14.90;79.80
76099;DHT22;64828;49.956;8.636;2023-05-07T00:41:11;14.90;79.60
76099;DHT22;64828;49.956;8.636;2023-05-07T00:41:27;14.90;79.40
76099;DHT22;64828;49.956;8.636;2023-05-07T00:41:42;14.90;79.60
76099;DHT22;64828;49.956;8.636;2023-05-07T00:41:58;14.90;79.70
76099;DHT22;64828;49.956;8.636;2023-05-07T00:42:14;14.80;79.90
76099;DHT22;64828;49.956;8.636;2023-05-07T00:42:31;14.80;80.20
76099;DHT22;64828;49.956;8.636;2023-05-07T00:42:47;14.80;80.40
76099;DHT22;64828;49.956;8.636;2023-05-07T00:43:04;14.80;80.40
76099;DHT22;64828;49.956;8.636;2023-05-07T00:43:19;14.80;80.50
76099;DHT22;64828;49.956;8.636;2023-05-07T00:43:35;14.80;80.50
76099;DHT22;64828;49.956;8.636;2023-05-07T00:43:51;14.80;80.50
76099;DHT22;64828;49.956;8.636;2023-05-07T00:44:07;14.80;80.70
76099;DHT22;64828;49.956;8.636;2023-05-07T00:44:23;14.80;80.80
76099;DHT22;64828;49.956;8.636;2023-05-07T00:44:38;14.80;80.80
76099;DHT22;64828;49.956;8.636;2023-05-07T00:44:54;14.80;81.00
76099;DHT22;64828;49.956;8.636;2023-05-07T00:45:10;14.80;80.80
76099;DHT22;64828;49.956;8.636;2023-05-07T00:45:29;14.80;80.70
76099;DHT22;64828;49.956;8.636;2023-05-07T00:45:45;14.80;80.80
76099;DHT22;64828;49.956;8.636;2023-05-07T00:46:00;14.80;80.80
76099;DHT22;64828;49.956;8.636;2023-05-07T00:46:16;14.80;80.90
76099;DHT22;64828;49.956;8.636;2023-05-07T00:46:32;14.80;81.10
76099;DHT22;64828;49.956;8.636;2023-05-07T00:46:49;14.80;81.20
76099;DHT22;64828;49.956;8.636;2023-05-07T00:47:05;14.80;80.70
76099;DHT22;64828;49.956;8.636;2023-05-07T00:47:21;14.80;80.60
76099;DHT22;64828;49.956;8.636;2023-05-07T00:47:37;14.80;80.40
76099;DHT22;64828;49.956;8.636;2023-05-07T00:47:58;14.80;80.40
76099;DHT22;64828;49.956;8.636;2023-05-07T00:48:15;14.80;80.50
76099;DHT22;64828;49.956;8.636;2023-05-07T00:48:31;14.80;80.50
76099;DHT22;64828;49.956;8.636;2023-05-07T00:48:48;14.70;80.60
76099;DHT22;64828;49.956;8.636;2023-05-07T00:49:05;14.80;80.70
76099;DHT22;64828;49.956;8.636;2023-05-07T00:49:21;14.70;80.80
76099;DHT22;64828;49.956;8.636;2023-05-07T00:49:41;14.70;81.00
76099;DHT22;64828;49.956;8.636;2023-05-07T00:49:58;14.70;81.10
76099;DHT22;64828;49.956;8.636;2023-05-07T00:50:14;14.70;81.00
76099;DHT22;64828;49.956;8.636;2023-05-07T00:50:31;14.70;81.10
76099;DHT22;64828;49.956;8.636;2023-05-07T00:50:48;14.70;81.10
76099;DHT22;64828;49.956;8.636;2023-05-07T00:51:03;14.70;81.30
76099;DHT22;64828;49.956;8.636;2023-05-07T00:51:19;14.70;80.80
76099;DHT22;64828;49.956;8.636;2023-05-07T00:51:35;14.70;80.90
76099;DHT22;64828;49.956;8.636;2023-05-07T00:51:51;14.70;81.00
76099;DHT22;64828;49.956;8.636;2023-05-07T00:52:07;14.70;81.10
76099;DHT22;64828;49.956;8.636;2023-05-07T00:52:29;14.70;81.10
76099;DHT22;64828;49.956;8.636;2023-05-07T00:52:45;14.70;81.00
76099;DHT22;64828;49.956;8.636;2023-05-07T00:53:01;14.70;81.00
76099;DHT22;64828;49.956;8.636;2023-05-07T00:53:16;14.70;80.90
76099;DHT22;64828;49.956;8.636;2023-05-07T00:53:32;14.70;81.00
76099;DHT22;64828;49.956;8.636;2023-05-07T00:53:48;14.70;81.00
76099;DHT22;64828;49.956;8.636;2023-05-07T00:54:03;14.70;81.10
76099;DHT22;64828;49.956;8.636;2023-05-07T00:54:20;14.70;81.20
76099;DHT22;64828;49.956;8.636;2023-05-07T00:54:37;14.70;81.00
76099;DHT22;64828;49.956;8.636;2023-05-07T00:54:54;14.70;81.00
76099;DHT22;64828;49.956;8.636;2023-05-07T00:55:10;14.70;81.00
76099;DHT22;64828;49.956;8.636;2023-05-07T00:55:26;14.70;81.10
76099;DHT22;64828;49.956;8.636;2023-05-07T00:55:42;14.70;81.00
76099;DHT22;64828;49.956;8.636;2023-05-07T00:55:57;14.70;80.90
76099;DHT22;64828;49.956;8.636;2023-05-07T00:56:13;14.70;81.00
76099;DHT22;64828;49.956;8.636;2023-05-07T00:56:30;14.70;81.00
76099;DHT22;64828;49.956;8.636;2023-05-07T00:56:46;14.70;81.00
76099;DHT22;64828;49.956;8.636;2023-05-07T00:57:03;14.70;81.00
76099;DHT22;64828;49.956;8.636;2023-05-07T00:57:20;14.70;80.90
76099;DHT22;64828;49.956;8.636;2023-05-07T00:57:37;14.70;80.90
76099;DHT22;64828;49.956;8.636;2023-05-07T00:57:54;14.70;81.00
76099;DHT22;64828;49.956;8.636;2023-05-07T00:58:10;14.60;80.80
76099;DHT22;64828;49.956;8.636;2023-05-07T00:58:26;14.60;80.90
76099;DHT22;64828;49.956;8.636;2023-05-07T00:58:42;14.70;80.90
76099;DHT22;64828;49.956;8.636;2023-05-07T00:58:58;14.70;80.80
76099;DHT22;64828;49.956;8.636;2023-05-07T00:59:14;14.70;80.80
76099;DHT22;64828;49.956;8.636;2023-05-07T00:59:32;14.70;80.80
76099;DHT22;64828;49.956;8.636;2023-05-07T00:59:48;14.70;81.10
76099;DHT22;64828;49.956;8.636;2023-05-07T01:00:05;14.60;81.20
76099;DHT22;64828;49.956;8.636;2023-05-07T01:00:22;14.70;81.20
76099;DHT22;64828;49.956;8.636;2023-05-07T01:00:40;14.70;81.10
76099;DHT22;64828;49.956;8.636;2023-05-07T01:00:56;14.70;81.00
76099;DHT22;64828;49.956;8.636;2023-05-07T01:01:11;14.70;81.00
76099;DHT22;64828;49.956;8.636;2023-05-07T01:01:27;14.70;81.10
76099;DHT22;64828;49.956;8.636;2023-05-07T01:01:43;14.70;81.00
76099;DHT22;64828;49.956;8.636;2023-05-07T01:01:59;14.60;81.00
76099;DHT22;64828;49.956;8.636;2023-05-07T01:02:14;14.70;81.10
76099;DHT22;64828;49.956;8.636;2023-05-07T01:02:30;14.60;81.00
76099;DHT22;64828;49.956;8.636;2023-05-07T01:02:46;14.60;80.90
76099;DHT22;64828;49.956;8.636;2023-05-07T01:03:01;14.60;80.90
76099;DHT22;64828;49.956;8.636;2023-05-07T01:03:17;14.60;80.80
76099;DHT22;64828;49.956;8.636;2023-05-07T01:03:33;14.60;80.90
76099;DHT22;64828;49.956;8.636;2023-05-07T01:03:49;14.60;80.90
76099;DHT22;64828;49.956;8.636;2023-05-07T01:04:04;14.60;80.80
76099;DHT22;64828;49.956;8.636;2023-05-07T01:04:26;14.60;80.90
76099;DHT22;64828;49.956;8.636;2023-05-07T01:04:49;14.60;80.90
76099;DHT22;64828;49.956;8.636;2023-05-07T01:05:05;14.60;80.90
76099;DHT22;64828;49.956;8.636;2023-05-07T01:05:26;14.60;80.80
76099;DHT22;64828;49.956;8.636;2023-05-07T01:05:43;14.60;80.70
76099;DHT22;64828;49.956;8.636;2023-05-07T01:06:02;14.70;80.60
76099;DHT22;64828;49.956;8.636;2023-05-07T01:06:19;14.60;80.40
76099;DHT22;64828;49.956;8.636;2023-05-07T01:06:38;14.60;80.40
76099;DHT22;64828;49.956;8.636;2023-05-07T01:06:55;14.70;80.50
76099;DHT22;64828;49.956;8.636;2023-05-07T01:07:13;14.60;80.60
76099;DHT22;64828;49.956;8.636;2023-05-07T01:07:29;14.60;80.70
76099;DHT22;64828;49.956;8.636;2023-05-07T01:07:46;14.60;80.80
76099;DHT22;64828;49.956;8.636;2023-05-07T01:08:04;14.60;80.80
76099;DHT22;64828;49.956;8.636;2023-05-07T01:08:21;14.70;80.90
76099;DHT22;64828;49.956;8.636;2023-05-07T01:08:38;14.60;80.80
76099;DHT22;64828;49.956;8.636;2023-05-07T01:08:55;14.60;80.80
76099;DHT22;64828;49.956;8.636;2023-05-07T01:09:12;14.60;80.80
76099;DHT22;64828;49.956;8.636;2023-05-07T01:09:29;14.60;80.90
76099;DHT22;64828;49.956;8.636;2023-05-07T01:09:45;14.60;80.80
76099;DHT22;64828;49.956;8.636;2023-05-07T01:10:00;14.60;80.90
76099;DHT22;64828;49.956;8.636;2023-05-07T01:10:18;14.60;80.90
76099;DHT22;64828;49.956;8.636;2023-05-07T01:10:34;14.70;80.80
76099;DHT22;64828;49.956;8.636;2023-05-07T01:10:50;14.60;80.60
76099;DHT22;64828;49.956;8.636;2023-05-07T01:11:07;14.60;80.60
76099;DHT22;64828;49.956;8.636;2023-05-07T01:11:23;14.60;80.90
76099;DHT22;64828;49.956;8.636;2023-05-07T01:11:40;14.60;81.20
76099;DHT22;64828;49.956;8.636;2023-05-07T01:11:57;14.60;81.30
76099;DHT22;64828;49.956;8.636;2023-05-07T01:12:14;14.60;80.90
76099;DHT22;64828;49.956;8.636;2023-05-07T01:12:31;14.60;80.70
76099;DHT22;64828;49.956;8.636;2023-05-07T01:12:48;14.70;80.70
76099;DHT22;64828;49.956;8.636;2023-05-07T01:13:05;14.60;80.80
76099;DHT22;64828;49.956;8.636;2023-05-07T01:13:21;14.60;80.70
76099;DHT22;64828;49.956;8.636;2023-05-07T01:13:38;14.70;80.90
76099;DHT22;64828;49.956;8.636;2023-05-07T01:13:55;14.60;80.80
76099;DHT22;64828;49.956;8.636;2023-05-07T01:14:12;14.60;80.70
76099;DHT22;64828;49.956;8.636;2023-05-07T01:14:27;14.60;80.80
76099;DHT22;64828;49.956;8.636;2023-05-07T01:14:43;14.60;81.00
76099;DHT22;64828;49.956;8.636;2023-05-07T01:14:59;14.60;80.90
76099;DHT22;64828;49.956;8.636;2023-05-07T01:15:15;14.60;80.90
76099;DHT22;64828;49.956;8.636;2023-05-07T01:15:32;14.60;80.80
76099;DHT22;64828;49.956;8.636;2023-05-07T01:15:47;14.60;80.90
76099;DHT22;64828;49.956;8.636;2023-05-07T01:16:03;14.60;81.00
76099;DHT22;64828;49.956;8.636;2023-05-07T01:16:19;14.60;81.00
76099;DHT22;64828;49.956;8.636;2023-05-07T01:16:36;14.60;80.90
76099;DHT22;64828;49.956;8.636;2023-05-07T01:16:52;14.60;80.70
76099;DHT22;64828;49.956;8.636;2023-05-07T01:17:08;14.60;80.80
76099;DHT22;64828;49.956;8.636;2023-05-07T01:17:24;14.60;80.80
76099;DHT22;64828;49.956;8.636;2023-05-07T01:17:41;14.60;80.70
76099;DHT22;64828;49.956;8.636;2023-05-07T01:17:58;14.60;80.80
76099;DHT22;64828;49.956;8.636;2023-05-07T01:18:14;14.60;80.80
76099;DHT22;64828;49.956;8.636;2023-05-07T01:18:30;14.50;80.70
76099;DHT22;64828;49.956;8.636;2023-05-07T01:18:46;14.60;80.60
76099;DHT22;64828;49.956;8.636;2023-05-07T01:19:03;14.60;80.60
76099;DHT22;64828;49.956;8.636;2023-05-07T01:19:20;14.60;80.90
76099;DHT22;64828;49.956;8.636;2023-05-07T01:19:35;14.60;80.90
76099;DHT22;64828;49.956;8.636;2023-05-07T01:19:51;14.60;80.80
76099;DHT22;64828;49.956;8.636;2023-05-07T01:20:08;14.60;80.80
76099;DHT22;64828;49.956;8.636;2023-05-07T01:20:25;14.60;80.70
76099;DHT22;64828;49.956;8.636;2023-05-07T01:20:42;14.60;80.80
76099;DHT22;64828;49.956;8.636;2023-05-07T01:20:59;14.60;80.90
76099;DHT22;64828;49.956;8.636;2023-05-07T01:21:17;14.60;80.80
76099;DHT22;64828;49.956;8.636;2023-05-07T01:21:33;14.60;80.80
76099;DHT22;64828;49.956;8.636;2023-05-07T01:22:02;14.60;80.80
76099;DHT22;64828;49.956;8.636;2023-05-07T01:22:35;14.60;80.80
76099;DHT22;64828;49.956;8.636;2023-05-07T01:22:53;14.60;80.70
76099;DHT22;64828;49.956;8.636;2023-05-07T01:23:09;14.50;80.70
76099;DHT22;64828;49.956;8.636;2023-05-07T01:23:27;14.50;80.60
76099;DHT22;64828;49.956;8.636;2023-05-07T01:23:44;14.60;80.60
76099;DHT22;64828;49.956;8.636;2023-05-07T01:24:01;14.60;80.60
76099;DHT22;64828;49.956;8.636;2023-05-07T01:24:18;14.50;80.60
76099;DHT22;64828;49.956;8.636;2023-05-07T01:24:35;14.60;80.60
76099;DHT22;64828;49.956;8.636;2023-05-07T01:24:52;14.60;80.60
76099;DHT22;64828;49.956;8.636;2023-05-07T01:25:09;14.60;80.80
76099;DHT22;64828;49.956;8.636;2023-05-07T01:25:25;14.60;81.00
76099;DHT22;64828;49.956;8.636;2023-05-07T01:25:41;14.60;80.90
76099;DHT22;64828;49.956;8.636;2023-05-07T01:25:56;14.50;80.90
76099;DHT22;64828;49.956;8.636;2023-05-07T01:26:12;14.60;80.80
76099;DHT22;64828;49.956;8.636;2023-05-07T01:26:28;14.60;80.80
76099;DHT22;64828;49.956;8.636;2023-05-07T01:26:43;14.60;80.80
76099;DHT22;64828;49.956;8.636;2023-05-07T01:27:02;14.60;80.60
76099;DHT22;64828;49.956;8.636;2023-05-07T01:27:18;14.60;80.70
76099;DHT22;64828;49.956;8.636;2023-05-07T01:27:34;14.60;80.80
76099;DHT22;64828;49.956;8.636;2023-05-07T01:27:51;14.60;80.60
76099;DHT22;64828;49.956;8.636;2023-05-07T01:28:07;14.60;80.60
76099;DHT22;64828;49.956;8.636;2023-05-07T01:28:23;14.60;80.60
76099;DHT22;64828;49.956;8.636;2023-05-07T01:28:38;14.60;80.50
76099;DHT22;64828;49.956;8.636;2023-05-07T01:28:54;14.60;80.60
76099;DHT22;64828;49.956;8.636;2023-05-07T01:29:09;14.60;80.60
76099;DHT22;64828;49.956;8.636;2023-05-07T01:29:25;14.60;80.70
76099;DHT22;64828;49.956;8.636;2023-05-07T01:29:41;14.60;80.80
76099;DHT22;64828;49.956;8.636;2023-05-07T01:29:56;14.60;80.50
76099;DHT22;64828;49.956;8.636;2023-05-07T01:30:12;14.60;80.60
76099;DHT22;64828;49.956;8.636;2023-05-07T01:30:28;14.60;80.60
76099;DHT22;64828;49.956;8.636;2023-05-07T01:30:48;14.60;80.80
76099;DHT22;64828;49.956;8.636;2023-05-07T01:31:18;14.50;80.80
76099;DHT22;64828;49.956;8.636;2023-05-07T01:31:34;14.60;80.80
76099;DHT22;64828;49.956;8.636;2023-05-07T01:31:51;14.60;80.60
76099;DHT22;64828;49.956;8.636;2023-05-07T01:32:08;14.60;80.50
76099;DHT22;64828;49.956;8.636;2023-05-07T01:33:19;14.60;80.70
76099;DHT22;64828;49.956;8.636;2023-05-07T01:33:21;14.60;80.90
76099;DHT22;64828;49.956;8.636;2023-05-07T01:33:40;14.50;80.70
76099;DHT22;64828;49.956;8.636;2023-05-07T01:33:59;14.50;80.70
76099;DHT22;64828;49.956;8.636;2023-05-07T01:34:17;14.60;80.80
76099;DHT22;64828;49.956;8.636;2023-05-07T01:34:36;14.60;80.80
76099;DHT22;64828;49.956;8.636;2023-05-07T01:34:53;14.60;80.90
76099;DHT22;64828;49.956;8.636;2023-05-07T01:35:11;14.60;80.80
76099;DHT22;64828;49.956;8.636;2023-05-07T01:35:38;14.50;80.90
76099;DHT22;64828;49.956;8.636;2023-05-07T01:36:01;14.60;81.00
76099;DHT22;64828;49.956;8.636;2023-05-07T01:36:22;14.50;81.00
76099;DHT22;64828;49.956;8.636;2023-05-07T01:36:43;14.60;81.10
76099;DHT22;64828;49.956;8.636;2023-05-07T01:36:59;14.60;81.00
76099;DHT22;64828;49.956;8.636;2023-05-07T01:37:16;14.50;81.10
76099;DHT22;64828;49.956;8.636;2023-05-07T01:37:32;14.60;81.10
76099;DHT22;64828;49.956;8.636;2023-05-07T01:37:48;14.60;81.00
76099;DHT22;64828;49.956;8.636;2023-05-07T01:38:06;14.60;81.00
76099;DHT22;64828;49.956;8.636;2023-05-07T01:38:23;14.60;81.10
76099;DHT22;64828;49.956;8.636;2023-05-07T01:38:40;14.60;81.10
76099;DHT22;64828;49.956;8.636;2023-05-07T01:38:57;14.60;81.10
76099;DHT22;64828;49.956;8.636;2023-05-07T01:39:14;14.60;81.00
76099;DHT22;64828;49.956;8.636;2023-05-07T01:39:32;14.60;81.00
76099;DHT22;64828;49.956;8.636;2023-05-07T01:39:48;14.60;80.90
76099;DHT22;64828;49.956;8.636;2023-05-07T01:40:04;14.60;80.90
76099;DHT22;64828;49.956;8.636;2023-05-07T01:40:24;14.60;80.80
76099;DHT22;64828;49.956;8.636;2023-05-07T01:40:41;14.60;80.70
76099;DHT22;64828;49.956;8.636;2023-05-07T01:40:57;14.60;80.70
76099;DHT22;64828;49.956;8.636;2023-05-07T01:41:13;14.50;80.80
76099;DHT22;64828;49.956;8.636;2023-05-07T01:41:29;14.60;80.70
76099;DHT22;64828;49.956;8.636;2023-05-07T01:41:45;14.60;80.80
76099;DHT22;64828;49.956;8.636;2023-05-07T01:42:01;14.60;80.80
76099;DHT22;64828;49.956;8.636;2023-05-07T01:42:17;14.60;80.80
76099;DHT22;64828;49.956;8.636;2023-05-07T01:42:33;14.50;80.90
76099;DHT22;64828;49.956;8.636;2023-05-07T01:42:48;14.50;81.00
76099;DHT22;64828;49.956;8.636;2023-05-07T01:43:05;14.50;81.10
76099;DHT22;64828;49.956;8.636;2023-05-07T01:43:21;14.50;81.10
76099;DHT22;64828;49.956;8.636;2023-05-07T01:43:37;14.50;81.30
76099;DHT22;64828;49.956;8.636;2023-05-07T01:43:53;14.50;81.20
76099;DHT22;64828;49.956;8.636;2023-05-07T01:44:12;14.50;81.10
76099;DHT22;64828;49.956;8.636;2023-05-07T01:44:29;14.50;81.10
76099;DHT22;64828;49.956;8.636;2023-05-07T01:44:46;14.50;81.10
76099;DHT22;64828;49.956;8.636;2023-05-07T01:45:02;14.50;81.10
76099;DHT22;64828;49.956;8.636;2023-05-07T01:45:18;14.50;81.20
76099;DHT22;64828;49.956;8.636;2023-05-07T01:45:34;14.50;81.10
76099;DHT22;64828;49.956;8.636;2023-05-07T01:45:50;14.50;81.10
76099;DHT22;64828;49.956;8.636;2023-05-07T01:46:07;14.50;81.00